sensor_id;sensor_type;location;lat;lon;timestamp;pressure;altitude;pressure_sealevel;temperature;humidity
20909;BME280;10614;53.198;6.570;2022-12-08T00:00:01;100902.25;;;1.95;100.00
20909;BME280;10614;53.198;6.570;2022-12-08T00:02:03;100897.91;;;1.94;100.00
20909;BME280;10614;53.198;6.570;2022-12-08T00:04:05;100891.88;;;1.92;100.00
20909;BME280;10614;53.198;6.570;2022-12-08T00:06:13;100886.69;;;1.88;100.00
20909;BME280;10614;53.198;6.570;2022-12-08T00:08:33;100882.38;;;1.86;100.00
20909;BME280;10614;53.198;6.570;2022-12-08T00:10:52;100871.13;;;1.87;100.00
20909;BME280;10614;53.198;6.570;2022-12-08T00:12:55;100863.34;;;1.88;100.00
20909;BME280;10614;53.198;6.570;2022-12-08T00:14:57;100867.66;;;1.86;100.00
20909;BME280;10614;53.198;6.570;2022-12-08T00:16:59;100866.81;;;1.86;100.00
20909;BME280;10614;53.198;6.570;2022-12-08T00:19:02;100870.28;;;1.83;100.00
20909;BME280;10614;53.198;6.570;2022-12-08T00:21:04;100879.78;;;1.86;100.00
20909;BME280;10614;53.198;6.570;2022-12-08T00:23:06;100866.81;;;1.84;100.00
20909;BME280;10614;53.198;6.570;2022-12-08T00:25:08;100855.56;;;1.84;100.00
20909;BME280;10614;53.198;6.570;2022-12-08T00:27:12;100848.66;;;1.83;100.00
20909;BME280;10614;53.198;6.570;2022-12-08T00:29:16;100837.41;;;1.85;100.00
20909;BME280;10614;53.198;6.570;2022-12-08T00:31:18;100833.91;;;1.85;100.00
20909;BME280;10614;53.198;6.570;2022-12-08T00:33:19;100833.91;;;1.85;100.00
20909;BME280;10614;53.198;6.570;2022-12-08T00:35:21;100836.50;;;1.85;100.00
20909;BME280;10614;53.198;6.570;2022-12-08T00:37:23;100830.47;;;1.87;100.00
20909;BME280;10614;53.198;6.570;2022-12-08T00:39:24;100833.91;;;1.86;100.00
20909;BME280;10614;53.198;6.570;2022-12-08T00:41:26;100826.13;;;1.86;100.00
20909;BME280;10614;53.198;6.570;2022-12-08T00:43:45;100831.31;;;1.88;100.00
20909;BME280;10614;53.198;6.570;2022-12-08T00:45:48;100818.34;;;1.88;100.00
20909;BME280;10614;53.198;6.570;2022-12-08T00:47:50;100825.25;;;1.89;100.00
20909;BME280;10614;53.198;6.570;2022-12-08T00:49:52;100815.72;;;1.89;100.00
20909;BME280;10614;53.198;6.570;2022-12-08T00:51:54;100824.41;;;1.90;100.00
20909;BME280;10614;53.198;6.570;2022-12-08T00:53:56;100815.72;;;1.89;100.00
20909;BME280;10614;53.198;6.570;2022-12-08T00:55:58;100796.69;;;1.89;100.00
20909;BME280;10614;53.198;6.570;2022-12-08T00:57:59;100795.84;;;1.90;100.00
20909;BME280;10614;53.198;6.570;2022-12-08T01:00:01;100792.38;;;1.89;100.00
20909;BME280;10614;53.198;6.570;2022-12-08T01:02:05;100785.47;;;1.90;100.00
20909;BME280;10614;53.198;6.570;2022-12-08T01:04:09;100797.56;;;1.91;100.00
20909;BME280;10614;53.198;6.570;2022-12-08T01:06:12;100798.44;;;1.90;100.00
20909;BME280;10614;53.198;6.570;2022-12-08T01:08:14;100805.34;;;1.89;100.00
20909;BME280;10614;53.198;6.570;2022-12-08T01:10:16;100804.50;;;1.89;100.00
20909;BME280;10614;53.198;6.570;2022-12-08T01:12:18;100809.69;;;1.89;100.00
20909;BME280;10614;53.198;6.570;2022-12-08T01:14:19;100801.03;;;1.90;100.00
20909;BME280;10614;53.198;6.570;2022-12-08T01:16:23;100803.63;;;1.90;100.00
20909;BME280;10614;53.198;6.570;2022-12-08T01:18:27;100794.97;;;1.89;100.00
20909;BME280;10614;53.198;6.570;2022-12-08T01:20:29;100792.38;;;1.91;100.00
20909;BME280;10614;53.198;6.570;2022-12-08T01:22:32;100794.13;;;1.92;100.00
20909;BME280;10614;53.198;6.570;2022-12-08T01:24:34;100791.50;;;1.90;100.00
20909;BME280;10614;53.198;6.570;2022-12-08T01:26:36;100785.47;;;1.88;100.00
20909;BME280;10614;53.198;6.570;2022-12-08T01:28:38;100788.03;;;1.92;100.00
20909;BME280;10614;53.198;6.570;2022-12-08T01:30:40;100779.38;;;1.91;100.00
20909;BME280;10614;53.198;6.570;2022-12-08T01:32:41;100786.31;;;1.92;100.00
20909;BME280;10614;53.198;6.570;2022-12-08T01:34:44;100787.16;;;1.94;100.00
20909;BME280;10614;53.198;6.570;2022-12-08T01:36:46;100784.56;;;1.96;100.00
20909;BME280;10614;53.198;6.570;2022-12-08T01:38:48;100788.00;;;1.96;100.00
20909;BME280;10614;53.198;6.570;2022-12-08T01:40:49;100794.94;;;1.96;100.00
20909;BME280;10614;53.198;6.570;2022-12-08T01:42:51;100789.75;;;1.94;100.00
20909;BME280;10614;53.198;6.570;2022-12-08T01:44:56;100781.97;;;1.94;100.00
20909;BME280;10614;53.198;6.570;2022-12-08T01:46:58;100789.75;;;1.96;100.00
20909;BME280;10614;53.198;6.570;2022-12-08T01:49:02;100785.41;;;1.96;100.00
20909;BME280;10614;53.198;6.570;2022-12-08T01:51:07;100793.19;;;1.98;100.00
20909;BME280;10614;53.198;6.570;2022-12-08T01:53:12;100788.91;;;1.95;100.00
20909;BME280;10614;53.198;6.570;2022-12-08T01:55:18;100773.31;;;1.97;100.00
20909;BME280;10614;53.198;6.570;2022-12-08T01:57:21;100779.34;;;1.99;100.00
20909;BME280;10614;53.198;6.570;2022-12-08T01:59:25;100782.81;;;1.98;100.00
20909;BME280;10614;53.198;6.570;2022-12-08T02:01:27;100780.22;;;1.99;100.00
20909;BME280;10614;53.198;6.570;2022-12-08T02:03:33;100774.19;;;1.97;100.00
20909;BME280;10614;53.198;6.570;2022-12-08T02:05:38;100777.63;;;1.96;100.00
20909;BME280;10614;53.198;6.570;2022-12-08T02:07:42;100781.97;;;1.97;100.00
20909;BME280;10614;53.198;6.570;2022-12-08T02:09:45;100788.88;;;1.98;100.00
20909;BME280;10614;53.198;6.570;2022-12-08T02:11:47;100807.94;;;1.97;100.00
20909;BME280;10614;53.198;6.570;2022-12-08T02:13:51;100805.31;;;1.94;100.00
20909;BME280;10614;53.198;6.570;2022-12-08T02:15:59;100794.97;;;1.91;100.00
20909;BME280;10614;53.198;6.570;2022-12-08T02:18:15;100798.41;;;1.92;100.00
20909;BME280;10614;53.198;6.570;2022-12-08T02:20:29;100789.78;;;1.91;100.00
20909;BME280;10614;53.198;6.570;2022-12-08T02:22:38;100793.22;;;1.92;100.00
20909;BME280;10614;53.198;6.570;2022-12-08T02:24:50;100794.09;;;1.94;100.00
20909;BME280;10614;53.198;6.570;2022-12-08T02:27:23;100791.50;;;1.94;100.00
20909;BME280;10614;53.198;6.570;2022-12-08T02:32:06;100799.31;;;1.92;100.00
20909;BME280;10614;53.198;6.570;2022-12-08T02:34:23;100793.25;;;1.90;100.00
20909;BME280;10614;53.198;6.570;2022-12-08T02:36:31;100786.34;;;1.86;100.00
20909;BME280;10614;53.198;6.570;2022-12-08T02:38:46;100781.16;;;1.80;100.00
20909;BME280;10614;53.198;6.570;2022-12-08T02:40:55;100776.88;;;1.80;100.00
20909;BME280;10614;53.198;6.570;2022-12-08T02:43:04;100761.31;;;1.76;100.00
20909;BME280;10614;53.198;6.570;2022-12-08T02:45:13;100744.88;;;1.75;100.00
20909;BME280;10614;53.198;6.570;2022-12-08T02:47:17;100742.28;;;1.74;100.00
20909;BME280;10614;53.198;6.570;2022-12-08T02:49:22;100742.28;;;1.74;100.00
20909;BME280;10614;53.198;6.570;2022-12-08T02:51:27;100743.16;;;1.76;100.00
20909;BME280;10614;53.198;6.570;2022-12-08T02:53:31;100747.47;;;1.77;100.00
20909;BME280;10614;53.198;6.570;2022-12-08T02:55:42;100747.47;;;1.77;100.00
20909;BME280;10614;53.198;6.570;2022-12-08T02:58:07;100743.97;;;1.79;100.00
20909;BME280;10614;53.198;6.570;2022-12-08T03:00:15;100740.53;;;1.79;100.00
20909;BME280;10614;53.198;6.570;2022-12-08T03:02:31;100743.13;;;1.79;100.00
20909;BME280;10614;53.198;6.570;2022-12-08T03:04:43;100731.00;;;1.78;100.00
20909;BME280;10614;53.198;6.570;2022-12-08T03:06:51;100734.47;;;1.77;100.00
20909;BME280;10614;53.198;6.570;2022-12-08T03:08:59;100725.00;;;1.76;100.00
20909;BME280;10614;53.198;6.570;2022-12-08T03:11:08;100735.38;;;1.74;100.00
20909;BME280;10614;53.198;6.570;2022-12-08T03:13:13;100742.28;;;1.74;100.00
20909;BME280;10614;53.198;6.570;2022-12-08T03:15:18;100746.59;;;1.73;100.00
20909;BME280;10614;53.198;6.570;2022-12-08T03:17:23;100744.03;;;1.72;100.00
20909;BME280;10614;53.198;6.570;2022-12-08T03:19:31;100721.53;;;1.74;100.00
20909;BME280;10614;53.198;6.570;2022-12-08T03:21:36;100717.19;;;1.74;100.00
20909;BME280;10614;53.198;6.570;2022-12-08T03:23:39;100717.19;;;1.74;100.00
20909;BME280;10614;53.198;6.570;2022-12-08T03:25:47;100725.84;;;1.75;100.00
20909;BME280;10614;53.198;6.570;2022-12-08T03:27:51;100731.88;;;1.75;100.00
20909;BME280;10614;53.198;6.570;2022-12-08T03:29:57;100721.50;;;1.77;100.00
20909;BME280;10614;53.198;6.570;2022-12-08T03:32:03;100711.97;;;1.77;100.00
20909;BME280;10614;53.198;6.570;2022-12-08T03:34:08;100711.09;;;1.80;100.00
20909;BME280;10614;53.198;6.570;2022-12-08T03:36:12;100720.63;;;1.79;100.00
20909;BME280;10614;53.198;6.570;2022-12-08T03:38:16;100705.94;;;1.77;100.00
20909;BME280;10614;53.198;6.570;2022-12-08T03:40:19;100717.19;;;1.79;100.00
20909;BME280;10614;53.198;6.570;2022-12-08T03:42:21;100719.75;;;1.82;100.00
20909;BME280;10614;53.198;6.570;2022-12-08T03:44:23;100721.47;;;1.81;100.00
20909;BME280;10614;53.198;6.570;2022-12-08T03:46:27;100708.53;;;1.77;100.00
20909;BME280;10614;53.198;6.570;2022-12-08T03:48:28;100714.59;;;1.79;100.00
20909;BME280;10614;53.198;6.570;2022-12-08T03:50:30;100705.94;;;1.78;100.00
20909;BME280;10614;53.198;6.570;2022-12-08T03:52:32;100705.94;;;1.75;100.00
20909;BME280;10614;53.198;6.570;2022-12-08T03:54:35;100697.28;;;1.75;100.00
20909;BME280;10614;53.198;6.570;2022-12-08T03:56:38;100701.63;;;1.76;100.00
20909;BME280;10614;53.198;6.570;2022-12-08T03:58:39;100706.81;;;1.76;100.00
20909;BME280;10614;53.198;6.570;2022-12-08T04:00:41;100706.81;;;1.74;100.00
20909;BME280;10614;53.198;6.570;2022-12-08T04:02:43;100707.69;;;1.72;100.00
20909;BME280;10614;53.198;6.570;2022-12-08T04:04:44;100711.16;;;1.72;100.00
20909;BME280;10614;53.198;6.570;2022-12-08T04:06:46;100712.91;;;1.70;100.00
20909;BME280;10614;53.198;6.570;2022-12-08T04:08:48;100708.59;;;1.67;100.00
20909;BME280;10614;53.198;6.570;2022-12-08T04:10:52;100719.84;;;1.66;100.00
20909;BME280;10614;53.198;6.570;2022-12-08T04:12:55;100706.88;;;1.65;100.00
20909;BME280;10614;53.198;6.570;2022-12-08T04:14:56;100707.75;;;1.64;100.00
20909;BME280;10614;53.198;6.570;2022-12-08T04:16:58;100705.16;;;1.62;100.00
20909;BME280;10614;53.198;6.570;2022-12-08T04:19:00;100707.78;;;1.59;100.00
20909;BME280;10614;53.198;6.570;2022-12-08T04:21:01;100688.72;;;1.59;100.00
20909;BME280;10614;53.198;6.570;2022-12-08T04:23:03;100699.13;;;1.60;100.00
20909;BME280;10614;53.198;6.570;2022-12-08T04:25:06;100710.34;;;1.62;100.00
20909;BME280;10614;53.198;6.570;2022-12-08T04:27:09;100700.81;;;1.61;100.00
20909;BME280;10614;53.198;6.570;2022-12-08T04:29:10;100706.00;;;1.61;100.00
20909;BME280;10614;53.198;6.570;2022-12-08T04:31:12;100714.69;;;1.62;100.00
20909;BME280;10614;53.198;6.570;2022-12-08T04:33:14;100715.53;;;1.62;100.00
20909;BME280;10614;53.198;6.570;2022-12-08T04:35:16;100725.91;;;1.61;100.00
20909;BME280;10614;53.198;6.570;2022-12-08T04:37:18;100721.56;;;1.61;100.00
20909;BME280;10614;53.198;6.570;2022-12-08T04:39:19;100727.63;;;1.63;100.00
20909;BME280;10614;53.198;6.570;2022-12-08T04:41:21;100722.47;;;1.62;100.00
20909;BME280;10614;53.198;6.570;2022-12-08T04:43:24;100719.84;;;1.63;100.00
20909;BME280;10614;53.198;6.570;2022-12-08T04:45:26;100723.31;;;1.64;100.00
20909;BME280;10614;53.198;6.570;2022-12-08T04:47:27;100727.63;;;1.63;100.00
20909;BME280;10614;53.198;6.570;2022-12-08T04:49:29;100718.13;;;1.61;100.00
20909;BME280;10614;53.198;6.570;2022-12-08T04:51:31;100718.13;;;1.64;100.00
20909;BME280;10614;53.198;6.570;2022-12-08T04:53:32;100727.63;;;1.65;100.00
20909;BME280;10614;53.198;6.570;2022-12-08T04:55:37;100710.31;;;1.65;100.00
20909;BME280;10614;53.198;6.570;2022-12-08T04:57:39;100709.47;;;1.66;100.00
20909;BME280;10614;53.198;6.570;2022-12-08T04:59:42;100699.09;;;1.66;100.00
20909;BME280;10614;53.198;6.570;2022-12-08T05:01:43;100694.75;;;1.67;100.00
20909;BME280;10614;53.198;6.570;2022-12-08T05:03:45;100686.94;;;1.68;100.00
20909;BME280;10614;53.198;6.570;2022-12-08T05:05:47;100693.88;;;1.69;100.00
20909;BME280;10614;53.198;6.570;2022-12-08T05:07:48;100693.88;;;1.69;100.00
20909;BME280;10614;53.198;6.570;2022-12-08T05:09:50;100688.69;;;1.69;100.00
20909;BME280;10614;53.198;6.570;2022-12-08T05:11:52;100690.41;;;1.71;100.00
20909;BME280;10614;53.198;6.570;2022-12-08T05:13:53;100691.28;;;1.71;100.00
20909;BME280;10614;53.198;6.570;2022-12-08T05:16:03;100682.59;;;1.71;100.00
20909;BME280;10614;53.198;6.570;2022-12-08T05:18:05;100685.19;;;1.71;100.00
20909;BME280;10614;53.198;6.570;2022-12-08T05:20:07;100683.50;;;1.69;100.00
20909;BME280;10614;53.198;6.570;2022-12-08T05:22:09;100680.91;;;1.68;100.00
20909;BME280;10614;53.198;6.570;2022-12-08T05:24:11;100673.16;;;1.66;100.00
20909;BME280;10614;53.198;6.570;2022-12-08T05:26:12;100671.38;;;1.68;100.00
20909;BME280;10614;53.198;6.570;2022-12-08T05:28:14;100678.31;;;1.68;100.00
20909;BME280;10614;53.198;6.570;2022-12-08T05:30:16;100681.75;;;1.68;100.00
20909;BME280;10614;53.198;6.570;2022-12-08T05:32:19;100699.06;;;1.69;100.00
20909;BME280;10614;53.198;6.570;2022-12-08T05:34:20;100699.06;;;1.68;100.00
20909;BME280;10614;53.198;6.570;2022-12-08T05:36:22;100701.69;;;1.65;100.00
20909;BME280;10614;53.198;6.570;2022-12-08T05:38:24;100691.31;;;1.63;100.00
20909;BME280;10614;53.198;6.570;2022-12-08T05:40:25;100687.84;;;1.61;100.00
20909;BME280;10614;53.198;6.570;2022-12-08T05:42:27;100680.09;;;1.58;100.00
20909;BME280;10614;53.198;6.570;2022-12-08T05:44:29;100685.31;;;1.55;100.00
20909;BME280;10614;53.198;6.570;2022-12-08T05:46:31;100690.47;;;1.57;100.00
20909;BME280;10614;53.198;6.570;2022-12-08T05:48:34;100680.13;;;1.55;100.00
20909;BME280;10614;53.198;6.570;2022-12-08T05:50:36;100674.06;;;1.53;100.00
20909;BME280;10614;53.198;6.570;2022-12-08T05:52:38;100673.19;;;1.54;100.00
20909;BME280;10614;53.198;6.570;2022-12-08T05:54:40;100674.94;;;1.55;100.00
20909;BME280;10614;53.198;6.570;2022-12-08T05:56:41;100674.09;;;1.55;100.00
20909;BME280;10614;53.198;6.570;2022-12-08T05:58:43;100673.19;;;1.54;100.00
20909;BME280;10614;53.198;6.570;2022-12-08T06:00:45;100670.59;;;1.54;100.00
20909;BME280;10614;53.198;6.570;2022-12-08T06:02:47;100672.34;;;1.55;100.00
20909;BME280;10614;53.198;6.570;2022-12-08T06:04:51;100668.00;;;1.54;100.00
20909;BME280;10614;53.198;6.570;2022-12-08T06:06:52;100661.94;;;1.57;100.00
20909;BME280;10614;53.198;6.570;2022-12-08T06:08:55;100668.00;;;1.57;100.00
20909;BME280;10614;53.198;6.570;2022-12-08T06:10:56;100663.66;;;1.56;100.00
20909;BME280;10614;53.198;6.570;2022-12-08T06:12:58;100677.50;;;1.57;100.00
20909;BME280;10614;53.198;6.570;2022-12-08T06:15:00;100671.47;;;1.53;100.00
20909;BME280;10614;53.198;6.570;2022-12-08T06:17:01;100661.97;;;1.52;100.00
20909;BME280;10614;53.198;6.570;2022-12-08T06:19:03;100659.38;;;1.55;100.00
20909;BME280;10614;53.198;6.570;2022-12-08T06:21:08;100668.00;;;1.57;100.00
20909;BME280;10614;53.198;6.570;2022-12-08T06:23:10;100664.53;;;1.57;100.00
20909;BME280;10614;53.198;6.570;2022-12-08T06:25:11;100663.66;;;1.56;100.00
20909;BME280;10614;53.198;6.570;2022-12-08T06:27:13;100657.63;;;1.54;100.00
20909;BME280;10614;53.198;6.570;2022-12-08T06:29:15;100668.88;;;1.53;100.00
20909;BME280;10614;53.198;6.570;2022-12-08T06:31:19;100668.03;;;1.50;100.00
20909;BME280;10614;53.198;6.570;2022-12-08T06:33:21;100669.81;;;1.47;100.00
20909;BME280;10614;53.198;6.570;2022-12-08T06:35:22;100660.28;;;1.46;100.00
20909;BME280;10614;53.198;6.570;2022-12-08T06:37:26;100672.41;;;1.43;100.00
20909;BME280;10614;53.198;6.570;2022-12-08T06:39:28;100676.75;;;1.41;100.00
20909;BME280;10614;53.198;6.570;2022-12-08T06:41:29;100677.59;;;1.40;100.00
20909;BME280;10614;53.198;6.570;2022-12-08T06:43:31;100675.00;;;1.40;100.00
20909;BME280;10614;53.198;6.570;2022-12-08T06:45:32;100682.81;;;1.38;100.00
20909;BME280;10614;53.198;6.570;2022-12-08T06:47:34;100676.75;;;1.39;100.00
20909;BME280;10614;53.198;6.570;2022-12-08T06:49:35;100677.63;;;1.37;100.00
20909;BME280;10614;53.198;6.570;2022-12-08T06:51:37;100679.34;;;1.36;100.00
20909;BME280;10614;53.198;6.570;2022-12-08T06:53:41;100680.25;;;1.34;100.00
20909;BME280;10614;53.198;6.570;2022-12-08T06:55:43;100675.91;;;1.33;100.00
20909;BME280;10614;53.198;6.570;2022-12-08T06:57:45;100670.72;;;1.33;100.00
20909;BME280;10614;53.198;6.570;2022-12-08T06:59:47;100667.28;;;1.34;100.00
20909;BME280;10614;53.198;6.570;2022-12-08T07:01:48;100678.50;;;1.33;100.00
20909;BME280;10614;53.198;6.570;2022-12-08T07:03:50;100672.47;;;1.34;100.00
20909;BME280;10614;53.198;6.570;2022-12-08T07:05:54;100671.59;;;1.32;100.00
20909;BME280;10614;53.198;6.570;2022-12-08T07:07:56;100676.78;;;1.32;100.00
20909;BME280;10614;53.198;6.570;2022-12-08T07:09:59;100681.13;;;1.31;100.00
20909;BME280;10614;53.198;6.570;2022-12-08T07:12:01;100673.34;;;1.30;100.00
20909;BME280;10614;53.198;6.570;2022-12-08T07:14:03;100682.84;;;1.27;100.00
20909;BME280;10614;53.198;6.570;2022-12-08T07:18:07;100691.50;;;1.25;100.00
20909;BME280;10614;53.198;6.570;2022-12-08T07:20:09;100691.50;;;1.23;100.00
20909;BME280;10614;53.198;6.570;2022-12-08T07:22:11;100688.91;;;1.23;100.00
20909;BME280;10614;53.198;6.570;2022-12-08T07:24:13;100684.59;;;1.21;100.00
20909;BME280;10614;53.198;6.570;2022-12-08T07:26:16;100694.13;;;1.22;100.00
20909;BME280;10614;53.198;6.570;2022-12-08T07:28:18;100691.53;;;1.20;100.00
20909;BME280;10614;53.198;6.570;2022-12-08T07:30:19;100695.84;;;1.20;100.00
20909;BME280;10614;53.198;6.570;2022-12-08T07:32:21;100691.53;;;1.19;100.00
20909;BME280;10614;53.198;6.570;2022-12-08T07:34:23;100689.81;;;1.18;100.00
20909;BME280;10614;53.198;6.570;2022-12-08T07:36:25;100682.03;;;1.16;100.00
20909;BME280;10614;53.198;6.570;2022-12-08T07:38:27;100686.38;;;1.13;100.00
20909;BME280;10614;53.198;6.570;2022-12-08T07:40:29;100682.91;;;1.12;100.00
20909;BME280;10614;53.198;6.570;2022-12-08T07:42:33;100688.09;;;1.12;100.00
20909;BME280;10614;53.198;6.570;2022-12-08T07:44:34;100679.47;;;1.10;100.00
20909;BME280;10614;53.198;6.570;2022-12-08T07:46:36;100680.31;;;1.09;100.00
20909;BME280;10614;53.198;6.570;2022-12-08T07:48:38;100688.09;;;1.09;100.00
20909;BME280;10614;53.198;6.570;2022-12-08T07:50:39;100689.88;;;1.05;100.00
20909;BME280;10614;53.198;6.570;2022-12-08T07:52:41;100686.38;;;1.05;100.00
20909;BME280;10614;53.198;6.570;2022-12-08T07:54:43;100689.84;;;1.04;100.00
20909;BME280;10614;53.198;6.570;2022-12-08T07:56:44;100687.25;;;1.04;100.00
20909;BME280;10614;53.198;6.570;2022-12-08T07:58:47;100685.53;;;1.03;100.00
20909;BME280;10614;53.198;6.570;2022-12-08T08:00:49;100690.72;;;1.03;100.00
20909;BME280;10614;53.198;6.570;2022-12-08T08:02:50;100689.84;;;1.04;100.00
20909;BME280;10614;53.198;6.570;2022-12-08T08:04:52;100690.72;;;1.01;100.00
20909;BME280;10614;53.198;6.570;2022-12-08T08:06:54;100686.44;;;0.99;100.00
20909;BME280;10614;53.198;6.570;2022-12-08T08:08:56;100689.88;;;0.99;100.00
20909;BME280;10614;53.198;6.570;2022-12-08T08:10:57;100701.94;;;1.00;100.00
20909;BME280;10614;53.198;6.570;2022-12-08T08:12:59;100689.00;;;0.99;100.00
20909;BME280;10614;53.198;6.570;2022-12-08T08:15:03;100698.53;;;0.98;100.00
20909;BME280;10614;53.198;6.570;2022-12-08T08:17:06;100693.34;;;0.98;100.00
20909;BME280;10614;53.198;6.570;2022-12-08T08:19:08;100697.63;;;0.98;100.00
20909;BME280;10614;53.198;6.570;2022-12-08T08:21:09;100701.13;;;0.98;100.00
20909;BME280;10614;53.198;6.570;2022-12-08T08:23:11;100717.53;;;0.99;100.00
20909;BME280;10614;53.198;6.570;2022-12-08T08:25:13;100720.09;;;0.97;100.00
20909;BME280;10614;53.198;6.570;2022-12-08T08:27:15;100725.28;;;0.96;100.00
20909;BME280;10614;53.198;6.570;2022-12-08T08:29:16;100727.88;;;0.96;100.00
20909;BME280;10614;53.198;6.570;2022-12-08T08:31:24;100731.34;;;0.95;100.00
20909;BME280;10614;53.198;6.570;2022-12-08T08:33:27;100724.44;;;0.95;100.00
20909;BME280;10614;53.198;6.570;2022-12-08T08:35:28;100727.03;;;0.97;100.00
20909;BME280;10614;53.198;6.570;2022-12-08T08:37:30;100710.59;;;0.98;100.00
20909;BME280;10614;53.198;6.570;2022-12-08T08:39:32;100709.75;;;0.99;100.00
20909;BME280;10614;53.198;6.570;2022-12-08T08:41:33;100700.25;;;0.99;100.00
20909;BME280;10614;53.198;6.570;2022-12-08T08:43:36;100699.38;;;1.02;100.00
20909;BME280;10614;53.198;6.570;2022-12-08T08:45:38;100706.25;;;1.03;100.00
20909;BME280;10614;53.198;6.570;2022-12-08T08:47:40;100701.09;;;1.06;100.00
20909;BME280;10614;53.198;6.570;2022-12-08T08:49:42;100702.81;;;1.05;100.00
20909;BME280;10614;53.198;6.570;2022-12-08T08:51:44;100700.22;;;1.07;100.00
20909;BME280;10614;53.198;6.570;2022-12-08T08:53:46;100691.56;;;1.07;100.00
20909;BME280;10614;53.198;6.570;2022-12-08T08:55:47;100704.53;;;1.08;100.00
20909;BME280;10614;53.198;6.570;2022-12-08T08:57:49;100703.66;;;1.09;100.00
20909;BME280;10614;53.198;6.570;2022-12-08T08:59:51;100705.41;;;1.09;100.00
20909;BME280;10614;53.198;6.570;2022-12-08T09:01:53;100706.25;;;1.09;100.00
20909;BME280;10614;53.198;6.570;2022-12-08T09:03:57;100702.81;;;1.10;100.00
20909;BME280;10614;53.198;6.570;2022-12-08T09:05:58;100702.81;;;1.10;100.00
20909;BME280;10614;53.198;6.570;2022-12-08T09:08:00;100716.63;;;1.11;100.00
20909;BME280;10614;53.198;6.570;2022-12-08T09:10:02;100705.41;;;1.09;100.00
20909;BME280;10614;53.198;6.570;2022-12-08T09:12:04;100711.41;;;1.14;100.00
20909;BME280;10614;53.198;6.570;2022-12-08T09:14:10;100716.63;;;1.15;100.00
20909;BME280;10614;53.198;6.570;2022-12-08T09:16:11;100720.91;;;1.19;100.00
20909;BME280;10614;53.198;6.570;2022-12-08T09:18:13;100716.56;;;1.21;100.00
20909;BME280;10614;53.198;6.570;2022-12-08T09:20:16;100722.63;;;1.25;100.00
20909;BME280;10614;53.198;6.570;2022-12-08T09:22:18;100719.16;;;1.29;100.00
20909;BME280;10614;53.198;6.570;2022-12-08T09:24:19;100721.72;;;1.31;100.00
20909;BME280;10614;53.198;6.570;2022-12-08T09:26:22;100721.72;;;1.31;100.00
20909;BME280;10614;53.198;6.570;2022-12-08T09:28:24;100723.47;;;1.32;100.00
20909;BME280;10614;53.198;6.570;2022-12-08T09:30:26;100728.63;;;1.33;100.00
20909;BME280;10614;53.198;6.570;2022-12-08T09:32:28;100736.44;;;1.32;100.00
20909;BME280;10614;53.198;6.570;2022-12-08T09:34:30;100729.50;;;1.32;100.00
20909;BME280;10614;53.198;6.570;2022-12-08T09:36:33;100741.59;;;1.33;100.00
20909;BME280;10614;53.198;6.570;2022-12-08T09:38:35;100743.34;;;1.33;100.00
20909;BME280;10614;53.198;6.570;2022-12-08T09:40:41;100736.41;;;1.35;100.00
20909;BME280;10614;53.198;6.570;2022-12-08T09:42:51;100736.41;;;1.36;100.00
20909;BME280;10614;53.198;6.570;2022-12-08T09:44:57;100737.28;;;1.38;100.00
20909;BME280;10614;53.198;6.570;2022-12-08T09:47:05;100741.56;;;1.38;100.00
20909;BME280;10614;53.198;6.570;2022-12-08T09:49:12;100732.09;;;1.38;100.00
20909;BME280;10614;53.198;6.570;2022-12-08T09:51:14;100732.91;;;1.40;100.00
20909;BME280;10614;53.198;6.570;2022-12-08T09:53:20;100731.19;;;1.42;100.00
20909;BME280;10614;53.198;6.570;2022-12-08T09:55:24;100726.00;;;1.44;100.00
20909;BME280;10614;53.198;6.570;2022-12-08T09:57:32;100717.34;;;1.46;100.00
20909;BME280;10614;53.198;6.570;2022-12-08T09:59:34;100710.41;;;1.50;100.00
20909;BME280;10614;53.198;6.570;2022-12-08T10:01:36;100709.53;;;1.51;100.00
20909;BME280;10614;53.198;6.570;2022-12-08T10:03:41;100700.88;;;1.52;100.00
20909;BME280;10614;53.198;6.570;2022-12-08T10:05:50;100704.28;;;1.59;100.00
20909;BME280;10614;53.198;6.570;2022-12-08T10:08:03;100698.25;;;1.60;100.00
20909;BME280;10614;53.198;6.570;2022-12-08T10:10:21;100698.22;;;1.61;100.00
20909;BME280;10614;53.198;6.570;2022-12-08T10:12:29;100700.81;;;1.63;100.00
20909;BME280;10614;53.198;6.570;2022-12-08T10:14:35;100699.97;;;1.64;100.00
20909;BME280;10614;53.198;6.570;2022-12-08T10:16:40;100693.91;;;1.65;100.00
20909;BME280;10614;53.198;6.570;2022-12-08T10:18:44;100700.81;;;1.67;100.00
20909;BME280;10614;53.198;6.570;2022-12-08T10:20:48;100692.19;;;1.64;100.00
20909;BME280;10614;53.198;6.570;2022-12-08T10:22:54;100688.69;;;1.68;100.00
20909;BME280;10614;53.198;6.570;2022-12-08T10:25:08;100697.31;;;1.72;100.00
20909;BME280;10614;53.198;6.570;2022-12-08T10:27:13;100699.91;;;1.72;100.00
20909;BME280;10614;53.198;6.570;2022-12-08T10:29:15;100702.50;;;1.72;100.00
20909;BME280;10614;53.198;6.570;2022-12-08T10:31:18;100707.69;;;1.72;100.00
20909;BME280;10614;53.198;6.570;2022-12-08T10:33:21;100709.41;;;1.73;100.00
20909;BME280;10614;53.198;6.570;2022-12-08T10:35:23;100715.47;;;1.73;100.00
20909;BME280;10614;53.198;6.570;2022-12-08T10:37:25;100717.19;;;1.74;100.00
20909;BME280;10614;53.198;6.570;2022-12-08T10:39:35;100713.72;;;1.75;100.00
20909;BME280;10614;53.198;6.570;2022-12-08T10:41:38;100718.03;;;1.78;100.00
20909;BME280;10614;53.198;6.570;2022-12-08T10:43:46;100710.25;;;1.78;100.00
20909;BME280;10614;53.198;6.570;2022-12-08T10:45:48;100719.75;;;1.82;100.00
20909;BME280;10614;53.198;6.570;2022-12-08T10:47:59;100713.69;;;1.83;100.00
20909;BME280;10614;53.198;6.570;2022-12-08T10:50:09;100711.06;;;1.87;100.00